Walton, Texas
Current Conditions -  °F | °C
As of 10:15 PM on Friday 19 Dec 2014 (Local Time) from KF44 Reporting Station
Haze Haze  
Wind Chill: 42°   Ceiling: 700
Heat Index: 45°   Visibility: 5mi
Dew Point: 45°   Wind: 5mph
Humidity: 100%   Direction: 40°NE
Pressure: 30.19"   Gusts: NA
Location:  32.2052°N, 95.8517°W
Report Text: KF44 200415Z AUTO 04004KT 5SM BR OVC007 07/07 A3019 RMK AO2
Loading
Personal Weather Stations






























Interactive Weather Map New forecast layout! Learn more

10-Day Weather Forecast

Advertisements
Track Severe Weather on mobile